Terminal Aerodrome Forecast
Issued by NWS St Louis, MO

Home | Current Version | Previous Version | Text Only | Print | Product List | Glossary On
Versions: 1 2 3 4 5 6 7 8 9 10 11 12 13
000
FTUS43 KLSX 212327
TAFCOU
TAF
KCOU 212327Z 2200/2224 06011KT P6SM -RA OVC060
     FM220500 06015G24KT P6SM -RA OVC050
     FM220900 06016G24KT 5SM -RA BR OVC040
     FM221700 02016G24KT P6SM -RA OVC020
     FM222000 03016G24KT P6SM OVC040=

USA.gov is the U.S. government's official web portal to all federal, state and local government web resources and services.